Time;durP1;ratioP1;P1;durP2;ratioP2;P2;SDS_P1;SDS_P2;PMS_P1;PMS_P2;Temp;Humidity;BMP_temperature;BMP_pressure;BME280_temperature;BME280_humidity;BME280_pressure;Samples;Min_cycle;Max_cycle;Signal;HPM_P1;HPM_P2
2024/03/08 00:01:02;;;;;;;40.03;17.80;;;2.30;99.90;;;;;;5071601;28;20044;-95
2024/03/08 00:03:29;;;;;;;38.88;17.23;;;1.30;99.90;;;;;;5059949;28;20120;-95
2024/03/08 00:05:56;;;;;;;37.45;17.48;;;1.40;99.90;;;;;;5065030;28;20069;-93
2024/03/08 00:08:22;;;;;;;40.78;17.58;;;1.30;99.90;;;;;;5059272;28;20042;-94
2024/03/08 00:10:49;;;;;;;43.78;17.52;;;1.40;99.90;;;;;;5066105;28;20175;-94
2024/03/08 00:13:16;;;;;;;38.92;18.27;;;1.50;99.90;;;;;;5060857;28;20502;-95
2024/03/08 00:15:43;;;;;;;43.22;18.55;;;1.50;99.90;;;;;;5054096;28;20034;-94
2024/03/08 00:18:11;;;;;;;37.78;17.52;;;2.30;99.90;;;;;;5051182;28;20112;-95
2024/03/08 00:20:38;;;;;;;43.13;18.08;;;1.00;99.90;;;;;;5066994;28;20103;-96
2024/03/08 00:23:04;;;;;;;41.05;18.02;;;2.90;99.90;;;;;;5045559;28;20038;-94
2024/03/08 00:25:31;;;;;;;40.08;17.23;;;1.40;99.90;;;;;;5071034;28;20099;-94
2024/03/08 00:27:59;;;;;;;41.70;18.02;;;1.60;99.90;;;;;;5061282;28;20038;-94
2024/03/08 00:30:26;;;;;;;43.45;19.10;;;;;;;;;;5076656;28;20059;-94
2024/03/08 00:32:53;;;;;;;43.20;18.88;;;1.60;99.90;;;;;;5056930;28;20873;-94
2024/03/08 00:35:20;;;;;;;39.92;17.73;;;1.60;99.90;;;;;;5075730;28;20037;-93
2024/03/08 00:37:46;;;;;;;38.78;18.23;;;2.60;99.90;;;;;;5054628;28;20044;-96
2024/03/08 00:40:13;;;;;;;44.53;18.30;;;2.80;99.90;;;;;;5070068;28;20044;-95
2024/03/08 00:42:41;;;;;;;40.67;18.45;;;1.60;99.90;;;;;;5074983;28;20049;-94
2024/03/08 00:45:09;;;;;;;42.50;18.45;;;1.60;99.90;;;;;;5054490;28;20045;-94
2024/03/08 00:47:36;;;;;;;41.53;17.48;;;1.70;99.90;;;;;;5080118;28;20133;-95
2024/03/08 00:50:03;;;;;;;37.42;17.20;;;2.80;99.90;;;;;;5064811;28;20127;-94
2024/03/08 00:52:30;;;;;;;35.25;17.85;;;1.60;99.90;;;;;;5067560;28;20135;-94
2024/03/08 00:54:57;;;;;;;42.67;18.10;;;3.00;99.90;;;;;;5070813;28;20065;-95
2024/03/08 00:57:24;;;;;;;41.25;17.88;;;2.90;99.90;;;;;;5048621;28;20053;-94
2024/03/08 00:59:50;;;;;;;41.55;18.70;;;1.70;99.90;;;;;;5046932;28;20045;-95
2024/03/08 01:02:18;;;;;;;42.72;18.92;;;2.40;99.90;;;;;;5054130;28;20045;-94
2024/03/08 01:04:47;;;;;;;41.00;18.48;;;1.40;99.90;;;;;;5072294;28;20556;-95
2024/03/08 01:07:13;;;;;;;39.92;18.55;;;2.90;99.90;;;;;;5071778;28;20071;-95
2024/03/08 01:09:40;;;;;;;42.45;18.83;;;1.60;99.90;;;;;;5047687;28;20052;-95
2024/03/08 01:12:07;;;;;;;42.05;18.35;;;2.80;99.90;;;;;;5097177;28;20033;-95
2024/03/08 01:14:37;;;;;;;44.33;19.58;;;3.00;99.90;;;;;;5054181;28;20041;-94
2024/03/08 01:17:04;;;;;;;40.47;18.33;;;2.30;99.90;;;;;;5058519;28;20037;-94
2024/03/08 01:19:32;;;;;;;42.13;17.55;;;1.60;99.90;;;;;;5081306;28;20045;-95
2024/03/08 01:21:58;;;;;;;36.95;18.20;;;0.50;99.90;;;;;;5076893;28;20067;-94
2024/03/08 01:24:25;;;;;;;40.70;16.80;;;1.60;99.90;;;;;;5066667;28;20116;-94
2024/03/08 01:26:52;;;;;;;40.58;19.58;;;0.70;99.90;;;;;;5057185;28;20041;-95
2024/03/08 01:29:19;;;;;;;41.65;17.83;;;1.50;99.90;;;;;;5058409;28;20057;-95
2024/03/08 01:31:45;;;;;;;41.65;17.80;;;1.50;99.90;;;;;;5090036;28;20103;-94
2024/03/08 01:34:12;;;;;;;38.45;17.02;;;2.70;99.90;;;;;;5048284;28;20124;-95
2024/03/08 01:36:39;;;;;;;37.90;17.80;;;2.40;99.90;;;;;;5060194;28;20044;-94
2024/03/08 01:39:07;;;;;;;39.28;18.17;;;2.90;99.90;;;;;;5079516;28;20030;-93
2024/03/08 01:41:37;;;;;;;40.88;19.40;;;2.60;99.90;;;;;;5078170;28;20033;-95
2024/03/08 01:44:07;;;;;;;35.15;17.33;;;1.10;99.90;;;;;;5053297;28;20037;-95
2024/03/08 01:46:34;;;;;;;39.90;17.83;;;1.30;99.90;;;;;;5059842;28;20037;-94
2024/03/08 01:49:01;;;;;;;38.03;17.52;;;2.30;99.90;;;;;;5053139;28;20521;-94
2024/03/08 01:51:30;;;;;;;37.97;18.15;;;1.30;99.90;;;;;;5069717;28;20087;-94
2024/03/08 01:53:58;;;;;;;39.28;16.40;;;2.30;99.90;;;;;;5078639;28;20052;-95
2024/03/08 01:56:25;;;;;;;39.03;16.80;;;1.90;99.90;;;;;;5070259;28;20052;-94
2024/03/08 01:58:54;;;;;;;37.20;17.00;;;2.00;99.90;;;;;;5074473;28;20044;-96
2024/03/08 02:01:21;;;;;;;33.58;16.38;;;1.20;99.90;;;;;;5069801;28;20044;-95
2024/03/08 02:03:49;;;;;;;38.47;17.13;;;1.50;99.90;;;;;;5069422;28;20041;-94
2024/03/08 02:06:16;;;;;;;38.50;16.70;;;1.30;99.90;;;;;;5077219;28;20182;-93
2024/03/08 02:08:44;;;;;;;38.65;16.33;;;2.40;99.90;;;;;;5066134;28;20494;-95
2024/03/08 02:11:12;;;;;;;43.78;17.45;;;1.60;99.90;;;;;;5077839;28;20121;-93
2024/03/08 02:13:39;;;;;;;35.10;17.23;;;1.10;99.90;;;;;;5070499;28;20187;-95
2024/03/08 02:16:07;;;;;;;42.03;17.70;;;2.50;99.90;;;;;;5056856;28;20120;-94
2024/03/08 02:18:35;;;;;;;37.67;16.77;;;1.00;99.90;;;;;;5052965;28;20568;-94
2024/03/08 02:21:03;;;;;;;37.53;17.25;;;2.30;99.90;;;;;;5074286;28;20029;-93
2024/03/08 02:23:29;;;;;;;35.33;16.70;;;1.00;99.90;;;;;;5059042;28;20048;-95
2024/03/08 02:25:57;;;;;;;38.85;17.63;;;2.10;99.90;;;;;;5052541;28;20037;-95
2024/03/08 02:28:28;;;;;;;34.05;16.38;;;2.10;99.90;;;;;;5074938;28;20037;-94
2024/03/08 02:30:55;;;;;;;38.67;17.08;;;0.90;99.90;;;;;;5085811;28;20061;-94
2024/03/08 02:33:23;;;;;;;33.40;16.70;;;0.90;99.90;;;;;;5054357;28;20129;-94
2024/03/08 02:35:51;;;;;;;36.30;16.70;;;-0.20;99.90;;;;;;5047967;28;20038;-95
2024/03/08 02:38:24;;;;;;;32.55;15.38;;;0.90;99.90;;;;;;5051204;28;20065;-95
2024/03/08 02:40:52;;;;;;;37.00;16.67;;;2.10;99.90;;;;;;5052871;28;20029;-94
2024/03/08 02:43:24;;;;;;;35.15;16.73;;;1.20;99.90;;;;;;5064206;28;20052;-95
2024/03/08 02:45:52;;;;;;;38.10;16.40;;;2.10;99.90;;;;;;5067420;28;20053;-95
2024/03/08 02:48:19;;;;;;;34.70;15.85;;;0.90;99.90;;;;;;5068263;28;20037;-94
2024/03/08 02:50:46;;;;;;;34.90;15.25;;;2.00;99.90;;;;;;5065452;28;20517;-95
2024/03/08 02:53:13;;;;;;;34.00;16.35;;;1.50;99.90;;;;;;5058200;28;20099;-94
2024/03/08 02:55:40;;;;;;;32.95;17.55;;;0.90;99.90;;;;;;5057049;28;20494;-93
2024/03/08 02:58:09;;;;;;;32.92;16.10;;;0.90;99.90;;;;;;5054111;28;20040;-95
2024/03/08 03:00:38;;;;;;;32.40;14.85;;;1.20;99.90;;;;;;5069846;28;20045;-94
2024/03/08 03:03:06;;;;;;;38.53;16.58;;;2.10;99.90;;;;;;5068977;28;20048;-94
2024/03/08 03:05:33;;;;;;;30.40;14.88;;;0.90;99.90;;;;;;5061615;28;20037;-94
2024/03/08 03:08:00;;;;;;;34.97;16.17;;;1.80;99.90;;;;;;5077259;28;20033;-94
2024/03/08 03:10:27;;;;;;;29.60;14.95;;;1.90;99.90;;;;;;5059619;28;20106;-94
2024/03/08 03:12:53;;;;;;;33.20;16.25;;;1.40;99.90;;;;;;5058372;28;20041;-94
2024/03/08 03:15:20;;;;;;;33.47;15.02;;;1.70;99.90;;;;;;5051089;28;20033;-94
2024/03/08 03:17:48;;;;;;;37.28;15.70;;;0.80;99.90;;;;;;5077699;28;20072;-94
2024/03/08 03:20:22;;;;;;;32.60;15.85;;;1.90;99.90;;;;;;5054538;28;20037;-93
2024/03/08 03:22:51;;;;;;;32.08;14.30;;;2.30;99.90;;;;;;5047863;28;20516;-94
2024/03/08 03:25:24;;;;;;;35.47;15.90;;;1.30;99.90;;;;;;5062052;28;20041;-95
2024/03/08 03:27:52;;;;;;;31.27;14.95;;;2.00;99.90;;;;;;5052173;28;20045;-94
2024/03/08 03:30:20;;;;;;;34.28;15.65;;;1.50;99.90;;;;;;5078911;28;20053;-95
2024/03/08 03:32:49;;;;;;;34.30;16.13;;;0.80;99.90;;;;;;5061501;28;20033;-94
2024/03/08 03:35:18;;;;;;;28.55;14.18;;;1.60;99.90;;;;;;5078289;28;20498;-95
2024/03/08 03:37:51;;;;;;;33.10;15.30;;;1.70;99.90;;;;;;5052291;28;20124;-95
2024/03/08 03:40:19;;;;;;;32.28;14.43;;;2.30;99.90;;;;;;5051289;28;20037;-94
2024/03/08 03:42:46;;;;;;;33.65;15.70;;;0.70;99.90;;;;;;5050975;28;20041;-93
2024/03/08 03:45:14;;;;;;;31.35;14.18;;;1.80;99.90;;;;;;5055140;28;20049;-94
2024/03/08 03:47:43;;;;;;;30.92;14.48;;;1.50;99.90;;;;;;5070682;28;20091;-94
2024/03/08 03:50:10;;;;;;;31.75;15.48;;;1.60;99.90;;;;;;5051253;28;20041;-94
2024/03/08 03:52:37;;;;;;;29.50;14.60;;;0.60;99.90;;;;;;5055778;28;20044;-95
2024/03/08 03:55:04;;;;;;;31.58;15.30;;;1.60;99.90;;;;;;5061398;28;20026;-94
2024/03/08 03:57:31;;;;;;;37.28;15.80;;;0.60;99.90;;;;;;5054791;28;20124;-95
2024/03/08 03:59:58;;;;;;;28.30;14.35;;;1.20;99.90;;;;;;5051061;28;20121;-94
2024/03/08 04:02:26;;;;;;;34.90;15.32;;;0.60;99.90;;;;;;5069042;28;20187;-94
2024/03/08 04:04:54;;;;;;;33.95;15.52;;;1.90;99.90;;;;;;5064696;28;20045;-94
2024/03/08 04:07:21;;;;;;;33.00;15.07;;;1.90;99.90;;;;;;5061055;28;20084;-94
2024/03/08 04:09:47;;;;;;;30.45;14.55;;;1.80;99.90;;;;;;5051454;28;20073;-95
2024/03/08 04:12:15;;;;;;;35.42;14.85;;;1.80;99.90;;;;;;5068317;28;20524;-93
2024/03/08 04:14:42;;;;;;;32.13;14.88;;;1.20;99.90;;;;;;5076089;28;20494;-95
2024/03/08 04:17:11;;;;;;;32.25;15.15;;;;;;;;;;5057295;28;20040;-94
2024/03/08 04:19:39;;;;;;;33.33;15.15;;;0.40;99.90;;;;;;5051048;28;20486;-96
2024/03/08 04:22:07;;;;;;;31.45;15.00;;;1.80;99.90;;;;;;5043583;28;20405;-94
2024/03/08 04:24:34;;;;;;;32.92;14.65;;;1.80;99.90;;;;;;5059604;28;20041;-94
2024/03/08 04:27:00;;;;;;;35.08;14.68;;;0.30;99.90;;;;;;5054419;28;20049;-94
2024/03/08 04:29:27;;;;;;;30.70;14.30;;;1.40;99.90;;;;;;5050538;28;20061;-93
2024/03/08 04:31:54;;;;;;;30.88;14.30;;;0.90;99.90;;;;;;5057613;28;20114;-94
2024/03/08 04:34:21;;;;;;;34.38;14.65;;;0.20;99.90;;;;;;5057614;28;20045;-95
2024/03/08 04:36:51;;;;;;;29.52;13.75;;;0.30;99.90;;;;;;5076936;28;20076;-94
2024/03/08 04:39:18;;;;;;;28.98;13.45;;;0.30;99.90;;;;;;5077237;28;20040;-94
2024/03/08 04:41:45;;;;;;;28.70;13.73;;;1.60;99.90;;;;;;5068694;28;20033;-95
2024/03/08 04:44:12;;;;;;;31.52;13.23;;;0.20;99.90;;;;;;5051435;28;20109;-94
2024/03/08 04:46:39;;;;;;;27.63;13.43;;;1.20;99.90;;;;;;5078315;28;20051;-94
2024/03/08 04:49:07;;;;;;;25.85;12.85;;;1.40;99.90;;;;;;5074929;28;20116;-94
2024/03/08 04:51:33;;;;;;;30.48;13.27;;;1.10;99.90;;;;;;5050692;28;20077;-94
2024/03/08 04:54:00;;;;;;;30.83;13.98;;;0.20;99.90;;;;;;5062866;28;20096;-93
2024/03/08 04:56:27;;;;;;;31.92;14.43;;;0.20;99.90;;;;;;5050307;28;20121;-94
2024/03/08 04:58:56;;;;;;;30.33;13.75;;;1.50;99.90;;;;;;5064634;28;20102;-93
2024/03/08 05:01:23;;;;;;;29.92;13.00;;;1.50;99.90;;;;;;5052863;28;20042;-93
2024/03/08 05:03:50;;;;;;;33.13;14.70;;;1.60;99.90;;;;;;5063276;28;20157;-94
2024/03/08 05:06:18;;;;;;;30.98;13.80;;;0.20;99.90;;;;;;5074748;28;20052;-94
2024/03/08 05:08:44;;;;;;;31.65;14.38;;;0.00;99.90;;;;;;5082581;28;20132;-94
2024/03/08 05:11:13;;;;;;;32.58;14.30;;;1.20;99.90;;;;;;5053815;28;20171;-93
2024/03/08 05:13:41;;;;;;;27.67;13.38;;;1.00;99.90;;;;;;5070241;28;20095;-94
2024/03/08 05:16:08;;;;;;;31.33;14.40;;;0.00;99.90;;;;;;5070538;28;20033;-94
2024/03/08 05:18:35;;;;;;;30.08;13.52;;;0.80;99.90;;;;;;5083221;28;20052;-94
2024/03/08 05:21:05;;;;;;;29.65;13.60;;;0.10;99.90;;;;;;5079508;28;20048;-94
2024/03/08 05:23:32;;;;;;;31.13;14.02;;;0.20;99.90;;;;;;5069685;28;20060;-94
2024/03/08 05:25:58;;;;;;;31.95;13.68;;;1.30;99.90;;;;;;5055359;28;20045;-95
2024/03/08 05:28:25;;;;;;;28.73;13.23;;;1.30;99.90;;;;;;5058856;28;20087;-95
2024/03/08 05:30:52;;;;;;;30.73;13.68;;;1.40;99.90;;;;;;5068310;28;20053;-94
2024/03/08 05:33:19;;;;;;;29.33;13.10;;;0.40;99.90;;;;;;5058839;28;20083;-94
2024/03/08 05:35:45;;;;;;;28.73;13.40;;;1.00;99.90;;;;;;5077567;28;20029;-94
2024/03/08 05:38:12;;;;;;;30.15;13.63;;;1.40;99.90;;;;;;5069869;28;20494;-94
2024/03/08 05:40:39;;;;;;;29.90;13.05;;;1.50;99.90;;;;;;5058557;28;20042;-93
2024/03/08 05:43:06;;;;;;;30.30;13.93;;;0.10;99.90;;;;;;5057926;28;20560;-94
2024/03/08 05:45:34;;;;;;;29.23;13.30;;;1.40;99.90;;;;;;5069961;28;20045;-93
2024/03/08 05:48:01;;;;;;;28.17;12.95;;;-0.10;99.90;;;;;;5077104;28;20045;-94
2024/03/08 05:50:27;;;;;;;27.73;13.60;;;0.10;99.90;;;;;;5084077;28;20405;-93
2024/03/08 05:52:55;;;;;;;30.05;13.93;;;0.60;99.90;;;;;;5069260;28;20495;-94
2024/03/08 05:55:22;;;;;;;33.75;14.27;;;1.40;99.90;;;;;;5052716;28;20034;-94
2024/03/08 05:57:53;;;;;;;34.05;14.30;;;1.20;99.90;;;;;;5069609;28;20076;-94
2024/03/08 06:00:22;;;;;;;28.90;13.50;;;1.20;99.90;;;;;;5082530;28;20453;-95
2024/03/08 06:02:48;;;;;;;28.35;12.75;;;0.00;99.90;;;;;;5091150;28;20037;-94
2024/03/08 06:05:15;;;;;;;31.25;14.32;;;0.00;99.90;;;;;;5052619;28;20049;-94
2024/03/08 06:07:42;;;;;;;29.92;13.60;;;0.80;99.90;;;;;;5049965;28;20060;-94
2024/03/08 06:10:10;;;;;;;27.08;12.68;;;0.00;99.90;;;;;;5069171;28;20040;-94
2024/03/08 06:12:41;;;;;;;26.88;13.25;;;0.00;99.90;;;;;;5069374;28;20041;-94
2024/03/08 06:15:09;;;;;;;30.00;13.52;;;0.80;99.90;;;;;;5069433;28;20087;-93
2024/03/08 06:17:39;;;;;;;27.23;12.73;;;0.00;99.90;;;;;;5052966;28;20029;-94
2024/03/08 06:20:10;;;;;;;30.00;13.50;;;0.30;99.90;;;;;;5052504;28;20047;-94
2024/03/08 06:22:44;;;;;;;28.73;12.82;;;0.00;99.90;;;;;;5071152;28;20033;-93
2024/03/08 06:25:14;;;;;;;30.85;13.57;;;0.60;99.90;;;;;;5051669;28;20449;-94
2024/03/08 06:27:46;;;;;;;33.58;14.38;;;0.10;99.90;;;;;;5056603;28;20033;-94
2024/03/08 06:30:15;;;;;;;29.48;13.52;;;1.20;99.90;;;;;;5049389;28;20100;-93
2024/03/08 06:32:42;;;;;;;28.88;13.07;;;0.10;99.90;;;;;;5062352;28;20033;-94
2024/03/08 06:35:10;;;;;;;30.92;13.10;;;1.10;99.90;;;;;;5059849;28;20090;-94
2024/03/08 06:37:37;;;;;;;30.55;14.40;;;0.70;99.90;;;;;;5070793;28;20037;-93
2024/03/08 06:40:04;;;;;;;27.48;13.57;;;-0.20;99.90;;;;;;5059965;28;20040;-93
2024/03/08 06:42:35;;;;;;;28.85;13.85;;;0.10;99.90;;;;;;5087174;28;20044;-92
2024/03/08 06:45:05;;;;;;;29.63;14.00;;;1.50;99.90;;;;;;5077970;28;20060;-94
2024/03/08 06:47:31;;;;;;;30.10;14.02;;;0.10;99.90;;;;;;5070307;28;20041;-93
2024/03/08 06:49:58;;;;;;;34.03;14.82;;;0.20;99.90;;;;;;5068460;28;20037;-95
2024/03/08 06:52:25;;;;;;;30.00;13.55;;;1.40;99.90;;;;;;5051794;28;20046;-94
2024/03/08 06:54:55;;;;;;;31.35;14.52;;;1.00;99.90;;;;;;5052828;28;20049;-93
2024/03/08 06:57:21;;;;;;;31.48;13.50;;;1.50;99.90;;;;;;5062805;28;20029;-94
2024/03/08 06:59:49;;;;;;;31.92;14.00;;;0.20;99.90;;;;;;5088848;28;20037;-93
2024/03/08 07:02:15;;;;;;;31.33;13.75;;;1.10;99.90;;;;;;5091239;28;20041;-93
2024/03/08 07:04:44;;;;;;;29.45;13.55;;;1.40;99.90;;;;;;5068204;28;20040;-95
2024/03/08 07:07:11;;;;;;;31.67;13.85;;;1.30;99.90;;;;;;5068656;28;20045;-94
2024/03/08 07:09:38;;;;;;;28.17;13.32;;;0.30;99.90;;;;;;5075941;28;20052;-94
2024/03/08 07:12:05;;;;;;;31.63;13.43;;;1.90;99.90;;;;;;5056812;28;20037;-94
2024/03/08 07:15:13;;;;;;;32.97;13.95;;;1.50;99.90;;;;;;5068218;28;20033;-94
2024/03/08 07:17:40;;;;;;;29.50;13.75;;;0.60;99.90;;;;;;5036369;28;20399;-92
2024/03/08 07:20:11;;;;;;;31.75;13.90;;;0.70;99.90;;;;;;5070352;28;20033;-92
2024/03/08 07:22:41;;;;;;;29.15;13.20;;;0.40;99.90;;;;;;5074040;28;20128;-90
2024/03/08 07:25:20;;;;;;;29.85;13.60;;;0.50;99.90;;;;;;5051280;28;20047;-90
2024/03/08 07:27:54;;;;;;;29.58;14.50;;;1.70;99.90;;;;;;5059255;28;20069;-91
2024/03/08 07:33:11;;;;;;;29.13;14.32;;;1.50;99.90;;;;;;5077317;28;20582;-92
2024/03/08 07:35:40;;;;;;;30.58;13.30;;;1.80;99.90;;;;;;5085806;28;20044;-91
2024/03/08 07:38:08;;;;;;;29.88;13.80;;;1.50;99.90;;;;;;5089020;28;20044;-91
2024/03/08 07:40:47;;;;;;;30.75;14.95;;;0.80;99.90;;;;;;5091206;28;20260;-90
2024/03/08 07:43:14;;;;;;;28.98;14.50;;;0.80;99.90;;;;;;5073846;28;20037;-91
2024/03/08 07:45:41;;;;;;;28.85;14.73;;;1.20;99.90;;;;;;5062801;28;20513;-91
2024/03/08 07:48:11;;;;;;;33.60;16.15;;;1.00;99.90;;;;;;5075822;28;20048;-91
2024/03/08 07:50:39;;;;;;;30.25;15.65;;;1.10;99.90;;;;;;5057341;28;20041;-91
2024/03/08 07:53:06;;;;;;;29.42;14.90;;;1.80;99.90;;;;;;5070156;28;20037;-90
2024/03/08 07:55:34;;;;;;;28.70;14.10;;;1.20;99.90;;;;;;5069479;28;20029;-89
2024/03/08 07:58:02;;;;;;;30.13;15.35;;;1.30;99.90;;;;;;5051630;28;20044;-89
2024/03/08 08:00:31;;;;;;;33.45;15.18;;;1.30;99.90;;;;;;5052352;28;20029;-88
2024/03/08 08:02:58;;;;;;;30.52;14.93;;;1.40;99.90;;;;;;5082583;28;20041;-93
2024/03/08 08:05:26;;;;;;;32.13;14.65;;;2.70;99.90;;;;;;5063675;28;20071;-96
2024/03/08 08:07:53;;;;;;;35.03;15.48;;;3.20;99.90;;;;;;5064323;28;20069;-95
2024/03/08 08:10:22;;;;;;;34.45;14.65;;;2.60;99.90;;;;;;5050864;28;20068;-95
2024/03/08 08:12:52;;;;;;;29.83;15.50;;;1.60;99.90;;;;;;5045732;28;20510;-95
2024/03/08 08:15:19;;;;;;;31.58;15.35;;;1.90;99.90;;;;;;5080408;28;20072;-95
2024/03/08 08:17:47;;;;;;;29.83;15.20;;;2.80;99.90;;;;;;5053807;28;20062;-95
2024/03/08 08:20:15;;;;;;;31.58;15.70;;;3.20;99.90;;;;;;5062011;28;20045;-94
2024/03/08 08:22:45;;;;;;;32.15;15.25;;;3.30;99.90;;;;;;5079557;28;20049;-94
2024/03/08 08:25:13;;;;;;;28.88;13.05;;;2.60;99.90;;;;;;5064484;28;20037;-95
2024/03/08 08:27:39;;;;;;;28.60;15.02;;;3.20;99.90;;;;;;5071283;28;20080;-95
2024/03/08 08:30:08;;;;;;;28.48;15.45;;;3.60;99.90;;;;;;5065363;28;20087;-95
2024/03/08 08:32:36;;;;;;;32.13;15.02;;;2.30;99.90;;;;;;5066821;28;20048;-94
2024/03/08 08:35:04;;;;;;;34.75;14.98;;;3.80;99.90;;;;;;5054253;28;20041;-95
2024/03/08 08:37:31;;;;;;;30.75;14.93;;;2.50;99.90;;;;;;5070503;28;20069;-94
2024/03/08 08:39:58;;;;;;;30.30;15.00;;;2.60;99.90;;;;;;5066996;28;20179;-95
2024/03/08 08:42:25;;;;;;;33.83;15.23;;;1.70;99.90;;;;;;5059074;28;20108;-95
2024/03/08 08:44:53;;;;;;;30.27;15.23;;;4.10;99.90;;;;;;5064175;28;20037;-94
2024/03/08 08:47:20;;;;;;;32.90;14.98;;;4.30;99.90;;;;;;5054183;28;20132;-94
2024/03/08 08:49:47;;;;;;;31.52;14.68;;;4.20;99.90;;;;;;5080896;28;20075;-95
2024/03/08 08:52:15;;;;;;;34.42;16.35;;;2.90;99.90;;;;;;5054074;28;20050;-93
2024/03/08 08:54:43;;;;;;;33.63;14.98;;;3.50;99.90;;;;;;5072476;28;20170;-95
2024/03/08 08:57:09;;;;;;;29.00;15.13;;;3.10;99.90;;;;;;5057779;28;20033;-94
2024/03/08 08:59:36;;;;;;;28.75;15.40;;;4.00;99.90;;;;;;5053296;28;20040;-94
2024/03/08 09:02:06;;;;;;;29.75;15.25;;;4.30;99.90;;;;;;5059494;28;20037;-96
2024/03/08 09:04:32;;;;;;;29.98;15.65;;;3.20;99.90;;;;;;5071994;28;20088;-95
2024/03/08 09:06:59;;;;;;;30.38;15.48;;;4.50;99.90;;;;;;5076346;28;20065;-94
2024/03/08 09:09:26;;;;;;;29.55;14.63;;;4.60;99.90;;;;;;5063634;28;20030;-93
2024/03/08 09:11:54;;;;;;;29.55;15.85;;;3.40;99.90;;;;;;5075533;28;20044;-94
2024/03/08 09:14:20;;;;;;;31.42;16.25;;;4.70;99.90;;;;;;5084105;28;20041;-96
2024/03/08 09:16:47;;;;;;;29.33;15.52;;;4.10;99.90;;;;;;5076856;28;20037;-94
2024/03/08 09:19:14;;;;;;;31.60;15.95;;;5.00;99.90;;;;;;5070772;28;20037;-95
2024/03/08 09:21:41;;;;;;;32.17;16.70;;;3.80;99.90;;;;;;5067144;28;20037;-94
2024/03/08 09:24:10;;;;;;;33.22;15.93;;;3.70;99.90;;;;;;5065889;28;20035;-92
2024/03/08 09:26:37;;;;;;;32.38;15.57;;;4.70;99.90;;;;;;5077319;28;20512;-95
2024/03/08 09:29:06;;;;;;;27.25;15.13;;;3.90;99.90;;;;;;5067281;28;20057;-95
2024/03/08 09:31:34;;;;;;;31.75;16.58;;;5.40;99.90;;;;;;5071164;28;20049;-94
2024/03/08 09:34:00;;;;;;;31.13;15.32;;;5.40;99.90;;;;;;5067744;28;20046;-95
2024/03/08 09:36:27;;;;;;;28.73;15.10;;;5.50;99.90;;;;;;5059183;28;20117;-95
2024/03/08 09:38:54;;;;;;;26.05;14.25;;;5.60;99.90;;;;;;5054589;28;20103;-96
2024/03/08 09:41:20;;;;;;;32.22;15.15;;;4.20;99.90;;;;;;5051460;28;20044;-95
2024/03/08 09:43:47;;;;;;;29.90;15.23;;;4.30;99.90;;;;;;5070240;28;20482;-95
2024/03/08 09:46:15;;;;;;;29.38;14.80;;;5.80;99.90;;;;;;5069391;28;20042;-96
2024/03/08 09:48:42;;;;;;;31.90;15.85;;;4.30;99.90;;;;;;5050257;28;20038;-95
2024/03/08 09:51:13;;;;;;;30.65;15.50;;;5.70;99.90;;;;;;5073511;28;20542;-96
2024/03/08 09:53:40;;;;;;;26.98;14.57;;;4.50;99.90;;;;;;5057004;28;20045;-94
2024/03/08 09:56:07;;;;;;;28.58;15.05;;;4.70;99.90;;;;;;5059639;28;20037;-94
2024/03/08 10:01:04;;;;;;;29.02;15.60;;;4.70;99.90;;;;;;5073543;28;20037;-96
2024/03/08 10:03:34;;;;;;;29.50;16.15;;;4.90;99.90;;;;;;5067071;28;20081;-95
2024/03/08 10:06:02;;;;;;;27.02;14.70;;;5.00;99.90;;;;;;5052868;28;20491;-95
2024/03/08 10:08:29;;;;;;;27.85;15.23;;;5.10;99.90;;;;;;5053121;28;20044;-96
2024/03/08 10:10:59;;;;;;;27.85;15.48;;;6.30;99.90;;;;;;5056444;28;20494;-96
2024/03/08 10:13:27;;;;;;;34.88;15.65;;;5.70;99.90;;;;;;5063452;28;20061;-95
2024/03/08 10:15:57;;;;;;;31.60;16.05;;;5.20;99.90;;;;;;5063330;28;20038;-95
2024/03/08 10:18:23;;;;;;;34.35;16.33;;;5.10;99.90;;;;;;5067424;28;20037;-95
2024/03/08 10:21:04;;;;;;;30.00;15.45;;;5.20;99.90;;;;;;5080966;28;20049;-95
2024/03/08 10:23:33;;;;;;;25.80;14.57;;;5.30;99.90;;;;;;5073863;28;20044;-96
2024/03/08 10:26:17;;;;;;;28.92;15.80;;;6.60;99.90;;;;;;5078134;28;20051;-96
2024/03/08 10:28:45;;;;;;;30.33;16.33;;;5.50;99.90;;;;;;5077295;28;20110;-95
2024/03/08 10:31:12;;;;;;;29.17;16.02;;;5.80;99.90;;;;;;5069518;28;20037;-95
2024/03/08 10:33:39;;;;;;;30.75;16.02;;;5.50;99.90;;;;;;5068594;28;20045;-95
2024/03/08 10:36:09;;;;;;;29.10;15.48;;;6.30;99.90;;;;;;5084370;28;20075;-96
2024/03/08 10:38:38;;;;;;;30.67;17.65;;;6.40;99.90;;;;;;5079700;28;20037;-95
2024/03/08 10:41:06;;;;;;;30.30;15.57;;;5.80;99.90;;;;;;5071910;28;20124;-95
2024/03/08 10:44:24;;;;;;;27.33;15.80;;;5.70;99.90;;;;;;5068593;28;20441;-96
2024/03/08 10:47:05;;;;;;;32.17;15.82;;;5.90;99.90;;;;;;5052798;28;20091;-95
2024/03/08 10:49:42;;;;;;;28.85;16.63;;;6.50;99.90;;;;;;5070995;28;20049;-95
2024/03/08 10:52:14;;;;;;;28.85;16.63;;;6.10;99.90;;;;;;5070116;28;20044;-95
2024/03/08 10:54:43;;;;;;;28.60;15.60;;;6.20;99.90;;;;;;5070223;28;20041;-95
2024/03/08 10:57:12;;;;;;;29.38;16.08;;;6.20;99.90;;;;;;5065395;28;20044;-96
2024/03/08 10:59:43;;;;;;;29.73;16.10;;;6.20;99.90;;;;;;5078759;28;20517;-96
2024/03/08 11:02:37;;;;;;;31.67;16.83;;;6.30;99.90;;;;;;5055689;28;20044;-96
2024/03/08 11:05:05;;;;;;;31.15;16.88;;;6.30;99.90;;;;;;5049066;28;20034;-95
2024/03/08 11:07:38;;;;;;;29.83;15.75;;;6.40;99.90;;;;;;5058727;28;20046;-96
2024/03/08 11:10:10;;;;;;;31.38;16.52;;;6.40;99.90;;;;;;5068413;28;20372;-95
2024/03/08 11:12:40;;;;;;;27.17;15.98;;;6.50;99.90;;;;;;5065535;28;20425;-95
2024/03/08 11:15:13;;;;;;;24.30;15.25;;;6.40;99.90;;;;;;5058959;28;20112;-94
2024/03/08 11:17:48;;;;;;;26.88;15.63;;;6.50;99.90;;;;;;5070739;28;20124;-94
2024/03/08 11:20:20;;;;;;;29.85;15.60;;;7.40;99.90;;;;;;5080434;28;20028;-96
2024/03/08 11:22:51;;;;;;;27.83;16.67;;;6.50;99.90;;;;;;5077648;28;20571;-95
2024/03/08 11:25:42;;;;;;;28.02;16.40;;;6.80;99.90;;;;;;5052636;28;20041;-95
2024/03/08 11:28:18;;;;;;;31.17;17.35;;;6.50;99.90;;;;;;5070354;28;20554;-94
2024/03/08 11:30:48;;;;;;;28.10;15.10;;;6.40;99.90;;;;;;5072761;28;20141;-96
2024/03/08 11:33:15;;;;;;;30.20;16.85;;;7.50;99.90;;;;;;5054344;28;20053;-95
2024/03/08 11:35:45;;;;;;;27.55;15.32;;;6.60;99.90;;;;;;5058290;28;20038;-95
2024/03/08 11:38:13;;;;;;;28.35;15.45;;;6.70;99.90;;;;;;5080312;28;20042;-96
2024/03/08 11:40:45;;;;;;;31.00;16.45;;;6.80;99.90;;;;;;5065943;28;20025;-96
2024/03/08 11:43:16;;;;;;;27.40;14.88;;;7.00;99.90;;;;;;5051760;28;20568;-96
2024/03/08 11:45:43;;;;;;;28.48;16.95;;;6.90;99.90;;;;;;5064754;28;20037;-95
2024/03/08 11:48:13;;;;;;;28.40;15.82;;;6.90;99.90;;;;;;5071710;28;20041;-96
2024/03/08 11:50:39;;;;;;;30.15;15.73;;;6.90;99.90;;;;;;5055280;28;20050;-95
2024/03/08 11:53:06;;;;;;;26.60;15.38;;;7.90;99.90;;;;;;5059594;28;20047;-96
2024/03/08 11:55:35;;;;;;;27.60;15.27;;;7.00;99.90;;;;;;5074771;28;20152;-96
2024/03/08 11:58:04;;;;;;;29.48;15.40;;;7.10;99.90;;;;;;5062650;28;20501;-96
2024/03/08 12:00:38;;;;;;;26.90;16.08;;;7.10;99.90;;;;;;5074281;28;20414;-96
2024/03/08 12:03:09;;;;;;;30.85;16.38;;;8.10;99.90;;;;;;5084800;28;20088;-93
2024/03/08 12:05:36;;;;;;;31.00;16.98;;;7.20;99.90;;;;;;5068301;28;20077;-94
2024/03/08 12:08:05;;;;;;;26.80;15.75;;;7.30;99.90;;;;;;5069668;28;20143;-95
2024/03/08 12:10:31;;;;;;;26.88;14.57;;;7.30;99.90;;;;;;5055603;28;20682;-96
2024/03/08 12:13:03;;;;;;;27.05;15.23;;;8.60;99.90;;;;;;5078233;28;20041;-95
2024/03/08 12:15:34;;;;;;;29.08;14.52;;;7.40;99.90;;;;;;5067248;28;20037;-96
2024/03/08 12:18:00;;;;;;;25.70;14.00;;;7.00;99.90;;;;;;5057381;28;20088;-95
2024/03/08 12:20:31;;;;;;;27.00;15.30;;;7.40;99.90;;;;;;5063393;28;20434;-95
2024/03/08 12:22:59;;;;;;;29.70;15.82;;;7.40;99.90;;;;;;5058879;28;20033;-96
2024/03/08 12:25:35;;;;;;;24.08;14.40;;;7.50;99.90;;;;;;5050641;28;20045;-96
2024/03/08 12:28:13;;;;;;;23.63;13.85;;;8.80;99.90;;;;;;5059964;28;20041;-95
2024/03/08 12:30:48;;;;;;;22.80;14.13;;;7.60;99.90;;;;;;5040553;28;20053;-96
2024/03/08 12:33:16;;;;;;;;;;;7.70;99.90;;;;;;5046376;28;20117;-96
2024/03/08 12:35:53;;;;;;;28.65;14.45;;;7.80;99.90;;;;;;5052936;28;19940;-96
2024/03/08 12:38:25;;;;;;;22.60;13.65;;;7.70;99.90;;;;;;5070735;28;20043;-96
2024/03/08 12:40:56;;;;;;;25.98;14.75;;;7.80;99.90;;;;;;5072592;28;20064;-95
2024/03/08 12:43:29;;;;;;;27.48;13.63;;;7.80;99.90;;;;;;5059827;28;20021;-96
2024/03/08 12:45:57;;;;;;;23.10;13.20;;;7.60;99.90;;;;;;5052008;28;20053;-96
2024/03/08 12:48:24;;;;;;;24.42;14.02;;;7.70;99.90;;;;;;5051387;28;20045;-96
2024/03/08 12:50:51;;;;;;;24.15;13.73;;;8.40;99.90;;;;;;5072232;28;20041;-95